Time;durP1;ratioP1;P1;durP2;ratioP2;P2;SDS_P1;SDS_P2;PMS_P1;PMS_P2;Temp;Humidity;BMP_temperature;BMP_pressure;BME280_temperature;BME280_humidity;BME280_pressure;Samples;Min_cycle;Max_cycle;Signal;HPM_P1;HPM_P2
2024/04/24 00:02:20;;;;;;;7.10;6.00;;;5.60;99.90;;;;;;5535753;25;20210;-45
2024/04/24 00:04:46;;;;;;;7.47;6.13;;;5.80;10.80;;;;;;5569169;25;20280;-45
2024/04/24 00:07:11;;;;;;;7.70;6.50;;;6.00;99.90;;;;;;5567939;25;20223;-45
2024/04/24 00:09:37;;;;;;;8.10;7.30;;;6.20;1.00;;;;;;5566380;25;20470;-45
2024/04/24 00:12:03;;;;;;;8.00;7.20;;;6.30;1.00;;;;;;5566018;25;20218;-46
2024/04/24 00:14:28;;;;;;;6.60;6.00;;;6.10;1.00;;;;;;5530928;25;20245;-45
2024/04/24 00:16:54;;;;;;;7.57;6.83;;;5.70;1.00;;;;;;5563620;25;20776;-46
2024/04/24 00:19:20;;;;;;;7.27;6.57;;;5.30;1.00;;;;;;5532796;25;20477;-45
2024/04/24 00:21:46;;;;;;;6.50;5.90;;;4.80;1.00;;;;;;5533909;25;20226;-45
2024/04/24 00:24:14;;;;;;;7.67;6.20;;;4.40;99.90;;;;;;5535275;25;20230;-46
2024/04/24 00:26:42;;;;;;;7.93;6.93;;;4.10;1.00;;;;;;5536019;25;20966;-46
2024/04/24 00:29:08;;;;;;;7.43;6.63;;;3.90;99.90;;;;;;5569234;25;20480;-46
2024/04/24 00:31:34;;;;;;;11.27;6.80;;;3.70;1.00;;;;;;5568798;25;20451;-46
2024/04/24 00:33:59;;;;;;;7.33;6.63;;;3.50;99.90;;;;;;5567795;25;20226;-45
2024/04/24 00:36:29;;;;;;;8.07;6.87;;;3.30;1.00;;;;;;5568376;25;20234;-46
2024/04/24 00:38:55;;;;;;;8.80;7.30;;;3.10;1.00;;;;;;5566701;25;20597;-47
2024/04/24 00:41:21;;;;;;;7.37;6.67;;;3.00;99.90;;;;;;5567652;25;20450;-46
2024/04/24 00:43:47;;;;;;;6.80;6.20;;;2.90;1.00;;;;;;5567594;25;20552;-46
2024/04/24 00:46:13;;;;;;;8.00;7.20;;;2.80;96.20;;;;;;5566294;25;20230;-46
2024/04/24 00:48:41;;;;;;;8.00;7.20;;;2.70;1.00;;;;;;5534323;25;20503;-46
2024/04/24 00:51:08;;;;;;;8.57;7.47;;;2.60;1.00;;;;;;5534358;25;20455;-46
2024/04/24 00:53:34;;;;;;;8.63;7.40;;;2.50;45.10;;;;;;5533379;25;20443;-46
2024/04/24 00:56:00;;;;;;;8.03;7.20;;;2.50;99.90;;;;;;5566235;25;20744;-46
2024/04/24 00:58:26;;;;;;;8.80;7.33;;;2.40;99.90;;;;;;5531937;25;20474;-46
2024/04/24 01:00:51;;;;;;;8.00;7.20;;;2.40;99.90;;;;;;5566823;25;20564;-46
2024/04/24 01:03:17;;;;;;;9.10;8.00;;;2.30;1.00;;;;;;5567993;25;20277;-46
2024/04/24 01:05:43;;;;;;;8.67;7.50;;;2.30;1.00;;;;;;5535147;25;20491;-44
2024/04/24 01:08:08;;;;;;;9.20;7.50;;;2.20;1.00;;;;;;5533001;25;20266;-46
2024/04/24 01:10:34;;;;;;;8.23;6.60;;;2.20;34.00;;;;;;5564730;25;20322;-46
2024/04/24 01:13:00;;;;;;;8.67;7.77;;;2.20;99.90;;;;;;5565528;25;20226;-46
2024/04/24 01:15:25;;;;;;;8.97;7.33;;;2.10;99.90;;;;;;5565645;25;20226;-46
2024/04/24 01:17:53;;;;;;;9.73;7.70;;;2.20;99.90;;;;;;5566765;25;20227;-43
2024/04/24 01:20:24;;;;;;;9.73;7.77;;;2.20;99.90;;;;;;5533727;25;20214;-45
2024/04/24 01:23:08;;;;;;;8.23;7.40;;;2.20;99.90;;;;;;5533659;25;20698;-44
2024/04/24 01:25:46;;;;;;;7.80;7.00;;;2.20;99.90;;;;;;5567023;25;20446;-45
2024/04/24 01:28:11;;;;;;;7.87;7.07;;;2.30;99.90;;;;;;5533100;25;20929;-44
2024/04/24 01:30:37;;;;;;;10.43;7.13;;;2.30;1.00;;;;;;5565951;25;20451;-46
2024/04/24 01:33:03;;;;;;;8.50;7.60;;;2.40;1.00;;;;;;5566974;25;20277;-44
2024/04/24 01:35:28;;;;;;;8.53;7.30;;;2.40;1.00;;;;;;5567907;25;20462;-44
2024/04/24 01:37:54;;;;;;;8.47;7.33;;;2.40;1.00;;;;;;5566327;25;20451;-44
2024/04/24 01:40:20;;;;;;;8.03;7.03;;;2.50;1.00;;;;;;5564551;25;20226;-44
2024/04/24 01:42:45;;;;;;;10.50;8.53;;;2.50;99.90;;;;;;5564888;25;20624;-44
2024/04/24 01:45:11;;;;;;;11.83;8.97;;;2.50;99.90;;;;;;5563919;25;20489;-45
2024/04/24 01:47:36;;;;;;;7.70;6.90;;;2.50;99.90;;;;;;5566131;25;20322;-44
2024/04/24 01:50:02;;;;;;;10.10;8.93;;;2.60;99.90;;;;;;5566872;25;20658;-45
2024/04/24 01:52:28;;;;;;;9.60;8.40;;;2.50;99.90;;;;;;5566784;25;20246;-45
2024/04/24 01:54:53;;;;;;;11.17;8.03;;;2.60;99.90;;;;;;5565682;25;20273;-44
2024/04/24 01:57:19;;;;;;;8.60;7.30;;;2.60;1.00;;;;;;5565862;25;20335;-45
2024/04/24 01:59:44;;;;;;;7.87;7.07;;;2.60;1.00;;;;;;5565654;25;20214;-45
2024/04/24 02:02:10;;;;;;;8.50;7.60;;;2.70;1.00;;;;;;5564970;25;20314;-45
2024/04/24 02:04:36;;;;;;;9.43;8.17;;;2.70;1.00;;;;;;5566496;25;20226;-44
2024/04/24 02:07:01;;;;;;;8.73;7.87;;;2.70;1.00;;;;;;5565756;25;20230;-45
2024/04/24 02:09:27;;;;;;;10.57;7.73;;;2.80;1.00;;;;;;5565158;25;20231;-44
2024/04/24 02:17:40;;;;;;;9.30;6.83;;;2.90;99.90;;;;;;5549668;25;20472;-45
2024/04/24 02:20:06;;;;;;;8.27;7.37;;;2.80;99.90;;;;;;5524973;25;20308;-45
2024/04/24 02:22:31;;;;;;;12.33;8.53;;;2.80;99.90;;;;;;5527702;25;20223;-45
2024/04/24 02:27:41;;;;;;;9.23;8.23;;;2.90;1.00;;;;;;5528921;25;20270;-45
2024/04/24 02:30:07;;;;;;;9.03;7.07;;;3.00;99.90;;;;;;5496759;26;20460;-44
2024/04/24 02:32:33;;;;;;;7.70;6.70;;;2.90;99.90;;;;;;5529242;25;20299;-44
2024/04/24 02:34:58;;;;;;;8.37;6.73;;;3.20;99.90;;;;;;5526620;25;20436;-44
2024/04/24 02:37:24;;;;;;;8.27;7.30;;;3.60;1.00;;;;;;5528050;25;20223;-44
2024/04/24 02:39:50;;;;;;;9.10;8.30;;;4.20;1.00;;;;;;5528818;25;20652;-45
2024/04/24 02:42:15;;;;;;;10.20;8.17;;;4.50;99.90;;;;;;5528988;25;20235;-44
2024/04/24 02:44:41;;;;;;;8.23;7.43;;;4.50;3.40;;;;;;5526184;25;20451;-44
2024/04/24 02:47:07;;;;;;;8.73;7.83;;;4.40;1.00;;;;;;5527226;25;20271;-45
2024/04/24 02:49:32;;;;;;;8.30;7.50;;;4.20;99.90;;;;;;5526662;26;20277;-44
2024/04/24 02:51:58;;;;;;;8.43;7.30;;;4.10;75.60;;;;;;5527405;25;20290;-45
2024/04/24 02:54:23;;;;;;;9.83;7.80;;;4.00;1.00;;;;;;5526744;25;20286;-46
2024/04/24 02:56:49;;;;;;;8.37;7.57;;;3.90;1.00;;;;;;5529140;25;20207;-45
2024/04/24 02:59:15;;;;;;;8.60;7.80;;;3.70;34.60;;;;;;5528900;25;20262;-44
2024/04/24 03:01:40;;;;;;;8.20;6.93;;;3.70;97.20;;;;;;5528551;25;20227;-45
2024/04/24 03:04:06;;;;;;;8.10;7.00;;;3.60;99.90;;;;;;5525399;25;20244;-45
2024/04/24 03:06:31;;;;;;;7.83;6.90;;;3.60;99.90;;;;;;5525652;25;20228;-45
2024/04/24 03:08:57;;;;;;;8.53;7.73;;;3.60;99.90;;;;;;5525507;25;20228;-45
2024/04/24 03:11:22;;;;;;;9.10;7.80;;;3.60;99.90;;;;;;5524603;25;20219;-45
2024/04/24 03:13:48;;;;;;;9.60;7.90;;;3.60;58.90;;;;;;5527705;25;20361;-45
2024/04/24 03:16:14;;;;;;;8.77;7.87;;;3.50;29.70;;;;;;5528156;25;20237;-45
2024/04/24 03:18:42;;;;;;;8.27;7.40;;;3.50;99.90;;;;;;5526926;25;20274;-45
2024/04/24 03:21:07;;;;;;;9.03;8.20;;;3.50;99.90;;;;;;5527340;25;20269;-45
2024/04/24 03:23:33;;;;;;;8.73;7.03;;;3.40;99.90;;;;;;5526923;26;20452;-44
2024/04/24 03:25:58;;;;;;;8.83;7.80;;;3.30;99.90;;;;;;5525135;25;20266;-45
2024/04/24 03:28:24;;;;;;;8.80;7.90;;;3.30;99.90;;;;;;5491913;26;20231;-45
2024/04/24 03:30:50;;;;;;;7.63;6.93;;;3.20;1.00;;;;;;5524448;25;20653;-45
2024/04/24 03:33:15;;;;;;;8.20;7.50;;;3.20;1.00;;;;;;5521816;26;20335;-44
2024/04/24 03:35:41;;;;;;;8.77;7.77;;;3.10;1.00;;;;;;5523138;25;20465;-44
2024/04/24 03:38:06;;;;;;;8.70;7.80;;;3.10;1.00;;;;;;5523906;25;20223;-44
2024/04/24 03:40:32;;;;;;;8.37;7.47;;;3.10;1.00;;;;;;5524133;26;20224;-45
2024/04/24 03:42:57;;;;;;;10.00;8.20;;;3.00;1.00;;;;;;5524062;25;20227;-44
2024/04/24 03:45:23;;;;;;;11.20;7.57;;;3.00;1.00;;;;;;5524040;26;20270;-34
2024/04/24 03:47:49;;;;;;;8.37;7.33;;;2.90;1.00;;;;;;5524917;25;20208;-36
2024/04/24 03:50:14;;;;;;;8.60;7.70;;;2.90;1.00;;;;;;5527424;25;20270;-45
2024/04/24 03:52:40;;;;;;;9.00;8.10;;;2.90;99.90;;;;;;5524674;25;20555;-45
2024/04/24 03:55:05;;;;;;;7.73;6.63;;;2.90;99.90;;;;;;5489366;25;20290;-44
2024/04/24 03:57:31;;;;;;;9.03;8.13;;;2.90;99.90;;;;;;5521507;25;20227;-44
2024/04/24 03:59:57;;;;;;;8.77;7.87;;;2.80;99.90;;;;;;5520423;25;20265;-45
2024/04/24 04:02:22;;;;;;;8.63;7.77;;;2.80;99.90;;;;;;5520467;25;20242;-44
2024/04/24 04:04:48;;;;;;;8.53;7.57;;;2.80;99.90;;;;;;5518102;26;20231;-45
2024/04/24 04:07:13;;;;;;;8.37;7.33;;;2.70;1.00;;;;;;5520336;25;20509;-45
2024/04/24 04:09:39;;;;;;;9.93;7.50;;;2.70;99.90;;;;;;5523423;25;20344;-45
2024/04/24 04:12:07;;;;;;;8.57;7.67;;;2.70;99.90;;;;;;5526150;25;20262;-44
2024/04/24 04:14:34;;;;;;;8.10;7.40;;;2.70;99.90;;;;;;5527019;25;20216;-45
2024/04/24 04:17:00;;;;;;;7.47;6.60;;;2.70;99.90;;;;;;5526782;25;20495;-44
2024/04/24 04:19:25;;;;;;;8.60;7.70;;;2.70;99.90;;;;;;5526282;25;20480;-44
2024/04/24 04:21:51;;;;;;;7.80;6.53;;;2.70;99.90;;;;;;5526416;25;20336;-45
2024/04/24 04:24:17;;;;;;;7.70;7.00;;;2.70;99.90;;;;;;5524841;25;20556;-45
2024/04/24 04:26:42;;;;;;;8.33;7.43;;;2.70;99.90;;;;;;5494489;26;20216;-45
2024/04/24 04:29:08;;;;;;;7.80;7.00;;;2.70;99.90;;;;;;5524423;25;20308;-44
2024/04/24 04:31:34;;;;;;;10.43;7.20;;;2.70;99.90;;;;;;5521515;26;20231;-44
2024/04/24 04:33:59;;;;;;;7.93;7.13;;;2.70;99.90;;;;;;5521741;25;20469;-44
2024/04/24 04:36:25;;;;;;;9.23;6.63;;;2.70;47.10;;;;;;5520817;25;20235;-44
2024/04/24 04:38:50;;;;;;;8.03;7.23;;;2.70;3.70;;;;;;5520630;25;20258;-45
2024/04/24 04:41:16;;;;;;;8.13;7.33;;;2.60;54.40;;;;;;5521390;25;20466;-44
2024/04/24 04:43:41;;;;;;;8.10;7.30;;;2.60;1.00;;;;;;5524812;25;20224;-45
2024/04/24 04:46:07;;;;;;;11.77;8.27;;;2.60;1.00;;;;;;5527995;25;20269;-45
2024/04/24 04:48:33;;;;;;;9.07;8.17;;;2.70;1.00;;;;;;5529136;25;20277;-45
2024/04/24 04:51:00;;;;;;;7.70;6.90;;;2.70;1.00;;;;;;5529219;25;20287;-44
2024/04/24 04:53:25;;;;;;;8.27;7.50;;;2.70;1.00;;;;;;5527812;25;20614;-44
2024/04/24 04:55:51;;;;;;;10.23;7.57;;;2.70;1.00;;;;;;5529809;25;20559;-45
2024/04/24 04:58:17;;;;;;;8.60;7.20;;;2.70;99.90;;;;;;5525753;25;20228;-44
2024/04/24 05:00:43;;;;;;;8.60;7.63;;;2.70;99.90;;;;;;5526622;26;20578;-45
2024/04/24 05:03:08;;;;;;;9.13;8.23;;;2.70;99.90;;;;;;5526344;25;20273;-48
2024/04/24 05:05:34;;;;;;;9.60;6.53;;;2.70;99.90;;;;;;5527050;25;20255;-45
2024/04/24 05:08:00;;;;;;;8.10;6.70;;;2.70;77.00;;;;;;5526664;25;20792;-44
2024/04/24 05:10:25;;;;;;;7.63;6.83;;;2.70;1.00;;;;;;5525496;25;20232;-45
2024/04/24 05:12:51;;;;;;;7.70;6.73;;;2.70;99.90;;;;;;5523743;25;20713;-45
2024/04/24 05:15:16;;;;;;;8.17;7.33;;;2.70;1.00;;;;;;5516843;25;20307;-45
2024/04/24 05:17:42;;;;;;;8.03;7.20;;;2.70;1.00;;;;;;5513283;25;20697;-45
2024/04/24 05:20:09;;;;;;;8.97;7.50;;;2.80;1.00;;;;;;5515232;25;20648;-44
2024/04/24 05:22:46;;;;;;;8.30;6.53;;;2.80;99.90;;;;;;5515811;25;20239;-44
2024/04/24 05:25:16;;;;;;;6.83;6.20;;;2.80;99.90;;;;;;5517043;25;20566;-45
2024/04/24 05:30:27;;;;;;;7.17;6.47;;;2.90;99.90;;;;;;5519171;25;20505;-44
2024/04/24 05:32:53;;;;;;;7.20;6.10;;;3.00;1.00;;;;;;5517693;25;20858;-45
2024/04/24 05:35:19;;;;;;;6.37;5.60;;;3.10;1.00;;;;;;5494787;26;20232;-45
2024/04/24 05:37:45;;;;;;;9.70;6.50;;;3.10;1.00;;;;;;5484468;26;20680;-45
2024/04/24 05:40:12;;;;;;;7.03;6.20;;;3.20;99.90;;;;;;5486136;26;20453;-45
2024/04/24 05:42:38;;;;;;;6.23;5.63;;;3.20;99.90;;;;;;5483209;26;20275;-45
2024/04/24 05:45:04;;;;;;;6.40;5.73;;;3.30;99.90;;;;;;5502277;25;21152;-45
2024/04/24 05:47:30;;;;;;;8.00;6.77;;;3.50;1.00;;;;;;5522172;25;20219;-45
2024/04/24 05:49:57;;;;;;;6.50;5.77;;;3.70;1.00;;;;;;5495185;26;20589;-45
2024/04/24 05:52:22;;;;;;;7.87;5.90;;;3.70;1.00;;;;;;5484669;26;20468;-45
2024/04/24 05:54:48;;;;;;;7.30;6.30;;;3.70;1.00;;;;;;5483228;26;20462;-45
2024/04/24 05:57:14;;;;;;;8.30;7.10;;;3.90;99.90;;;;;;5487875;26;20510;-45
2024/04/24 05:59:39;;;;;;;7.60;6.77;;;4.00;1.00;;;;;;5503228;26;20825;-45
2024/04/24 06:02:05;;;;;;;7.73;6.80;;;4.20;1.00;;;;;;5521341;25;20604;-45
2024/04/24 06:04:31;;;;;;;9.17;8.17;;;4.30;99.90;;;;;;5499393;26;20349;-45
2024/04/24 06:06:56;;;;;;;8.30;7.40;;;4.30;93.80;;;;;;5483363;26;20453;-45
2024/04/24 06:09:23;;;;;;;8.50;7.67;;;4.30;99.90;;;;;;5487863;26;20294;-45
2024/04/24 06:11:50;;;;;;;11.83;8.00;;;4.30;99.90;;;;;;5487534;26;20212;-45
2024/04/24 06:14:16;;;;;;;9.40;8.50;;;4.40;99.90;;;;;;5489457;26;20466;-45
2024/04/24 06:16:41;;;;;;;8.83;7.93;;;4.60;1.00;;;;;;5488773;26;20514;-46
2024/04/24 06:19:07;;;;;;;11.57;8.67;;;4.80;1.00;;;;;;5487360;26;20240;-45
2024/04/24 06:21:32;;;;;;;11.27;8.77;;;5.00;1.00;;;;;;5488439;26;20232;-45
2024/04/24 06:23:58;;;;;;;10.10;9.10;;;5.30;99.90;;;;;;5489204;26;20221;-45
2024/04/24 06:26:24;;;;;;;11.50;9.70;;;5.60;99.90;;;;;;5522967;25;20505;-45
2024/04/24 06:28:50;;;;;;;10.77;9.27;;;5.70;1.00;;;;;;5519592;25;20216;-45
2024/04/24 06:31:16;;;;;;;10.60;9.63;;;5.90;1.00;;;;;;5502340;25;20844;-45
2024/04/24 06:33:42;;;;;;;11.30;10.20;;;6.00;1.00;;;;;;5486281;26;20228;-45
2024/04/24 06:36:08;;;;;;;11.13;9.23;;;6.30;1.00;;;;;;5488629;26;20748;-45
2024/04/24 06:38:34;;;;;;;11.27;10.17;;;6.40;1.00;;;;;;5488611;26;20236;-45
2024/04/24 06:40:59;;;;;;;10.70;9.60;;;6.40;99.90;;;;;;5489337;26;20465;-45
2024/04/24 06:43:25;;;;;;;12.17;10.43;;;6.40;99.90;;;;;;5488880;26;20774;-45
2024/04/24 06:45:50;;;;;;;11.40;10.30;;;6.40;99.90;;;;;;5505891;25;20243;-45
2024/04/24 06:48:16;;;;;;;10.27;9.13;;;6.50;99.90;;;;;;5524730;25;20579;-45
2024/04/24 06:50:42;;;;;;;12.57;11.27;;;6.40;99.90;;;;;;5523382;25;20279;-45
2024/04/24 06:53:07;;;;;;;11.13;10.10;;;6.40;99.90;;;;;;5460928;26;21033;-45
2024/04/24 06:55:33;;;;;;;12.90;10.13;;;6.20;99.90;;;;;;5487372;26;20292;-45
2024/04/24 06:57:59;;;;;;;12.80;10.10;;;6.20;99.90;;;;;;5487097;26;20266;-45
2024/04/24 07:00:24;;;;;;;14.80;10.10;;;6.30;99.90;;;;;;5486136;26;20442;-45
2024/04/24 07:02:50;;;;;;;12.27;10.07;;;6.40;99.90;;;;;;5507742;26;20227;-45
2024/04/24 07:05:16;;;;;;;11.37;10.27;;;6.40;99.90;;;;;;5526210;25;20730;-45
2024/04/24 07:07:41;;;;;;;11.93;10.27;;;6.30;99.90;;;;;;5520973;25;20239;-45
2024/04/24 07:10:07;;;;;;;11.13;10.10;;;6.40;99.90;;;;;;5521382;25;20552;-45
2024/04/24 07:12:33;;;;;;;11.27;10.27;;;6.50;99.90;;;;;;5520119;25;20349;-46
2024/04/24 07:14:58;;;;;;;11.73;10.60;;;6.50;99.90;;;;;;5522581;25;20642;-45
2024/04/24 07:17:24;;;;;;;13.70;11.57;;;6.80;99.90;;;;;;5521389;25;20219;-45
2024/04/24 07:19:49;;;;;;;13.00;11.80;;;6.90;99.90;;;;;;5522310;25;20676;-45
2024/04/24 07:22:15;;;;;;;12.37;11.07;;;7.00;99.90;;;;;;5524539;25;20229;-45
2024/04/24 07:24:41;;;;;;;11.50;10.30;;;6.90;99.90;;;;;;5521828;25;20223;-45
2024/04/24 07:27:06;;;;;;;11.47;10.10;;;6.80;99.90;;;;;;5519942;25;20235;-45
2024/04/24 07:29:32;;;;;;;11.20;10.10;;;6.80;99.90;;;;;;5520019;26;20515;-45
2024/04/24 07:31:57;;;;;;;10.83;9.37;;;6.60;99.90;;;;;;5523220;25;20224;-45
2024/04/24 07:34:23;;;;;;;14.33;12.50;;;6.50;99.90;;;;;;5522778;25;20227;-45
2024/04/24 07:36:48;;;;;;;12.30;11.10;;;6.40;99.90;;;;;;5524433;25;20564;-45
2024/04/24 07:39:14;;;;;;;13.20;11.77;;;6.30;1.00;;;;;;5523262;25;20231;-45
2024/04/24 07:41:41;;;;;;;13.87;12.37;;;6.30;1.00;;;;;;5523351;25;20284;-46
2024/04/24 07:44:06;;;;;;;13.30;12.00;;;6.20;1.00;;;;;;5523001;25;20799;-45
2024/04/24 07:46:32;;;;;;;13.10;11.90;;;6.20;99.90;;;;;;5518715;25;20456;-45
2024/04/24 07:48:57;;;;;;;14.20;12.80;;;6.20;1.00;;;;;;5523921;25;20454;-45
2024/04/24 07:51:23;;;;;;;12.37;11.10;;;6.20;1.00;;;;;;5525036;25;20228;-45
2024/04/24 07:53:49;;;;;;;13.33;11.93;;;6.30;1.00;;;;;;5524026;25;20286;-45
2024/04/24 07:56:14;;;;;;;11.87;10.67;;;6.20;1.00;;;;;;5522437;25;20665;-45
2024/04/24 07:58:40;;;;;;;13.80;11.57;;;6.20;1.00;;;;;;5520707;25;20269;-45
2024/04/24 08:01:05;;;;;;;13.20;11.80;;;6.00;1.00;;;;;;5520628;25;20723;-45
2024/04/24 08:03:31;;;;;;;11.77;10.53;;;6.20;1.00;;;;;;5520101;25;20736;-45
2024/04/24 08:05:57;;;;;;;13.67;12.37;;;6.40;1.00;;;;;;5521716;25;20279;-45
2024/04/24 08:08:23;;;;;;;14.53;10.80;;;6.40;1.00;;;;;;5522833;25;20215;-45
2024/04/24 08:10:48;;;;;;;13.23;11.83;;;6.40;1.00;;;;;;5522979;25;20962;-45
2024/04/24 08:13:15;;;;;;;13.50;11.50;;;6.30;1.00;;;;;;5522193;25;20278;-45
2024/04/24 08:15:41;;;;;;;11.90;10.80;;;6.40;1.00;;;;;;5524208;25;20642;-46
2024/04/24 08:18:07;;;;;;;12.40;11.10;;;6.50;1.00;;;;;;5524933;25;20638;-45
2024/04/24 08:20:33;;;;;;;12.70;11.60;;;6.70;1.00;;;;;;5528292;25;20598;-45
2024/04/24 08:22:58;;;;;;;12.83;11.53;;;7.00;99.90;;;;;;5528263;25;20264;-45
2024/04/24 08:25:24;;;;;;;10.73;9.73;;;7.50;99.90;;;;;;5525333;25;20258;-45
2024/04/24 08:27:50;;;;;;;11.67;10.57;;;7.50;99.90;;;;;;5527282;25;20227;-44
2024/04/24 08:30:16;;;;;;;11.10;10.10;;;7.60;99.90;;;;;;5528287;25;20273;-45
2024/04/24 08:32:42;;;;;;;11.80;10.70;;;7.80;99.90;;;;;;5526416;25;20508;-45
2024/04/24 08:35:08;;;;;;;11.50;10.30;;;7.50;99.90;;;;;;5525356;25;20237;-45
2024/04/24 08:37:33;;;;;;;10.60;9.50;;;7.30;99.90;;;;;;5526769;25;20486;-45
2024/04/24 08:39:59;;;;;;;12.50;11.30;;;7.30;99.90;;;;;;5525051;25;20262;-45
2024/04/24 08:42:25;;;;;;;12.10;10.90;;;7.10;87.80;;;;;;5524818;25;20219;-45
2024/04/24 08:44:51;;;;;;;12.47;11.20;;;6.90;68.60;;;;;;5495115;25;20657;-45
2024/04/24 08:47:18;;;;;;;11.43;10.33;;;6.80;79.80;;;;;;5494307;25;20220;-45
2024/04/24 08:49:44;;;;;;;12.70;11.50;;;6.90;80.70;;;;;;5464012;26;20691;-45
2024/04/24 08:52:12;;;;;;;12.03;10.93;;;6.90;84.50;;;;;;5527249;25;20502;-45
2024/04/24 08:54:39;;;;;;;13.03;11.73;;;7.10;63.70;;;;;;5491625;25;20884;-45
2024/04/24 08:57:10;;;;;;;10.80;9.87;;;7.00;56.10;;;;;;5525327;25;20444;-45
2024/04/24 08:59:40;;;;;;;12.00;10.80;;;7.00;44.80;;;;;;5491231;26;20745;-45
2024/04/24 09:02:08;;;;;;;13.53;12.13;;;7.10;72.50;;;;;;5525166;25;20433;-45
2024/04/24 09:04:36;;;;;;;12.30;11.10;;;6.90;58.10;;;;;;5524070;25;20456;-45
2024/04/24 09:07:04;;;;;;;11.63;10.50;;;6.80;69.80;;;;;;5523449;25;20777;-45
2024/04/24 09:09:30;;;;;;;13.10;11.20;;;6.70;60.50;;;;;;5526414;26;20460;-45
2024/04/24 09:12:03;;;;;;;11.67;10.60;;;6.60;83.20;;;;;;5525282;25;20853;-45
2024/04/24 09:14:31;;;;;;;11.20;9.80;;;6.40;99.80;;;;;;5524813;25;20487;-45
2024/04/24 09:16:56;;;;;;;11.87;10.77;;;6.30;99.90;;;;;;5523942;25;20488;-45
2024/04/24 09:19:23;;;;;;;11.03;9.93;;;6.20;99.90;;;;;;5489230;25;20839;-45
2024/04/24 09:21:49;;;;;;;14.90;11.20;;;6.30;99.90;;;;;;5494589;26;20219;-45
2024/04/24 09:24:18;;;;;;;12.30;11.20;;;6.10;99.90;;;;;;5527553;25;20506;-45
2024/04/24 09:26:44;;;;;;;11.40;10.30;;;6.00;99.90;;;;;;5527038;25;20204;-45
2024/04/24 09:29:11;;;;;;;11.83;10.63;;;6.00;99.90;;;;;;5523939;25;20437;-45
2024/04/24 09:31:38;;;;;;;11.83;10.80;;;6.00;99.90;;;;;;5523422;26;20228;-45
2024/04/24 09:34:03;;;;;;;11.50;10.50;;;5.90;99.90;;;;;;5524102;25;20457;-45
2024/04/24 09:36:32;;;;;;;11.83;10.63;;;6.00;99.90;;;;;;5526452;25;20595;-47
2024/04/24 09:38:58;;;;;;;12.17;10.93;;;6.00;99.90;;;;;;5525121;25;20257;-47
2024/04/24 09:41:24;;;;;;;12.80;11.50;;;6.00;99.90;;;;;;5524008;25;20858;-47
2024/04/24 09:43:50;;;;;;;15.73;14.10;;;5.90;99.90;;;;;;5526113;25;20327;-47
2024/04/24 09:46:18;;;;;;;12.40;11.20;;;6.00;1.00;;;;;;5526072;25;20516;-47
2024/04/24 09:48:45;;;;;;;18.50;10.97;;;5.90;1.00;;;;;;5523870;25;20448;-47
2024/04/24 09:51:13;;;;;;;14.70;12.07;;;6.10;1.00;;;;;;5524928;26;20449;-47
2024/04/24 09:53:39;;;;;;;13.57;12.27;;;6.10;1.00;;;;;;5524374;26;20441;-47
2024/04/24 09:56:12;;;;;;;13.37;11.30;;;6.20;1.00;;;;;;5522090;25;20500;-47
2024/04/24 09:58:39;;;;;;;13.37;12.07;;;6.10;1.00;;;;;;5492132;25;20239;-47
2024/04/24 10:01:08;;;;;;;12.87;11.57;;;6.20;1.00;;;;;;5492230;26;20795;-47
2024/04/24 10:03:35;;;;;;;11.90;10.80;;;6.30;1.00;;;;;;5524260;25;20724;-48
2024/04/24 10:06:02;;;;;;;10.43;9.47;;;6.30;1.00;;;;;;5523103;25;20460;-48
2024/04/24 10:08:34;;;;;;;8.20;7.40;;;6.30;99.90;;;;;;5491073;26;20508;-48
2024/04/24 10:11:02;;;;;;;7.80;7.00;;;6.30;99.90;;;;;;5524356;25;20494;-47
2024/04/24 10:13:32;;;;;;;7.83;7.03;;;6.20;99.90;;;;;;5526042;25;20794;-41
2024/04/24 10:15:59;;;;;;;7.30;6.67;;;6.00;99.90;;;;;;5524149;25;20646;-41
2024/04/24 10:18:28;;;;;;;7.53;6.83;;;6.00;1.00;;;;;;5523022;25;20857;-41
2024/04/24 10:20:55;;;;;;;7.37;6.63;;;5.90;1.00;;;;;;5488650;26;20472;-40
2024/04/24 10:23:21;;;;;;;8.70;7.37;;;5.90;1.00;;;;;;5488582;26;20822;-40
2024/04/24 10:25:47;;;;;;;8.23;7.43;;;6.00;1.00;;;;;;5488433;26;20993;-42
2024/04/24 10:28:14;;;;;;;8.10;7.40;;;6.00;54.10;;;;;;5490207;25;20224;-40
2024/04/24 10:30:40;;;;;;;8.40;7.53;;;6.10;67.20;;;;;;5456219;25;20452;-40
2024/04/24 10:33:07;;;;;;;8.00;7.20;;;6.10;42.50;;;;;;5484769;26;21054;-43
2024/04/24 10:35:34;;;;;;;8.67;7.87;;;6.30;99.90;;;;;;5521184;26;20575;-41
2024/04/24 10:38:04;;;;;;;7.67;6.97;;;6.30;71.50;;;;;;5485915;26;20441;-40
2024/04/24 10:40:29;;;;;;;8.33;7.63;;;6.40;66.50;;;;;;5486868;26;20468;-40
2024/04/24 10:43:02;;;;;;;8.60;7.80;;;6.70;92.60;;;;;;5486212;25;21001;-40
2024/04/24 10:45:28;;;;;;;8.97;8.17;;;6.90;1.00;;;;;;5517902;25;20224;-39
2024/04/24 10:47:55;;;;;;;9.70;8.73;;;7.10;1.00;;;;;;5521052;25;20731;-42
2024/04/24 10:50:25;;;;;;;7.47;6.87;;;7.30;1.00;;;;;;5521711;25;20436;-40
2024/04/24 10:52:55;;;;;;;8.40;7.60;;;7.20;1.00;;;;;;5522293;25;20530;-42
2024/04/24 10:55:22;;;;;;;8.70;7.90;;;7.10;1.00;;;;;;5524885;25;20923;-40
2024/04/24 10:57:52;;;;;;;8.33;7.63;;;6.80;1.00;;;;;;5489669;26;21159;-41
2024/04/24 11:00:18;;;;;;;8.83;8.10;;;6.60;1.00;;;;;;5523088;25;20644;-40
2024/04/24 11:02:45;;;;;;;8.17;7.40;;;6.50;1.00;;;;;;5523566;26;20433;-41
2024/04/24 11:05:12;;;;;;;8.33;7.63;;;6.50;27.90;;;;;;5520179;25;20607;-42
2024/04/24 11:07:38;;;;;;;8.00;7.30;;;6.50;58.20;;;;;;5521017;25;20574;-42
2024/04/24 11:10:06;;;;;;;8.27;7.50;;;6.70;79.60;;;;;;5522244;25;20917;-41
2024/04/24 11:12:37;;;;;;;7.43;6.77;;;6.70;1.00;;;;;;5522031;26;20453;-42
2024/04/24 11:15:04;;;;;;;8.13;7.43;;;6.80;1.00;;;;;;5488885;26;20503;-43
2024/04/24 11:17:30;;;;;;;10.67;8.30;;;6.80;1.00;;;;;;5518764;25;20481;-42
2024/04/24 11:19:55;;;;;;;7.67;6.97;;;6.80;54.40;;;;;;5489695;26;20472;-42
2024/04/24 11:22:30;;;;;;;6.97;6.37;;;6.90;1.00;;;;;;5491089;26;20240;-41
2024/04/24 11:24:56;;;;;;;7.13;6.53;;;6.90;1.00;;;;;;5522473;25;20584;-41
2024/04/24 11:27:25;;;;;;;7.23;6.63;;;7.10;1.00;;;;;;5524708;25;20510;-40
2024/04/24 11:29:54;;;;;;;7.47;6.87;;;7.00;1.00;;;;;;5522742;25;20631;-41
2024/04/24 11:32:19;;;;;;;7.40;6.70;;;6.90;1.00;;;;;;5523726;25;20569;-42
2024/04/24 11:34:45;;;;;;;7.53;6.83;;;6.90;1.00;;;;;;5520890;25;20870;-41
2024/04/24 11:37:11;;;;;;;7.60;6.90;;;6.90;1.00;;;;;;5491199;25;20464;-40
2024/04/24 11:39:37;;;;;;;7.30;6.70;;;7.10;1.00;;;;;;5524661;25;20814;-40
2024/04/24 11:42:03;;;;;;;6.50;6.00;;;7.20;1.00;;;;;;5523475;25;20527;-41
2024/04/24 11:44:29;;;;;;;6.53;5.93;;;7.10;1.00;;;;;;5492853;26;20220;-42
2024/04/24 11:46:56;;;;;;;7.40;6.40;;;7.10;1.00;;;;;;5491696;25;20460;-41
2024/04/24 11:49:23;;;;;;;7.40;6.70;;;7.20;1.00;;;;;;5524699;25;20224;-43
2024/04/24 11:51:49;;;;;;;6.70;6.07;;;7.20;1.00;;;;;;5524331;25;20569;-39
2024/04/24 11:54:15;;;;;;;7.30;6.70;;;7.30;1.00;;;;;;5526560;25;20519;-41
2024/04/24 11:56:42;;;;;;;7.50;6.80;;;7.30;1.00;;;;;;5528564;25;20441;-41
2024/04/24 11:59:09;;;;;;;5.90;5.40;;;7.40;1.00;;;;;;5491594;25;20579;-42
2024/04/24 12:01:35;;;;;;;6.70;6.20;;;7.50;1.00;;;;;;5520193;25;20456;-41
2024/04/24 12:04:03;;;;;;;8.00;7.23;;;7.60;99.90;;;;;;5525565;25;20503;-43
2024/04/24 12:06:35;;;;;;;8.17;7.17;;;7.50;99.90;;;;;;5527102;25;20455;-41
2024/04/24 12:09:03;;;;;;;7.30;6.60;;;7.30;1.00;;;;;;5494591;25;20444;-43
2024/04/24 12:11:40;;;;;;;6.40;5.90;;;7.10;1.00;;;;;;5527691;25;20441;-41
2024/04/24 12:14:06;;;;;;;7.70;6.90;;;6.80;1.00;;;;;;5525645;25;20834;-40
2024/04/24 12:16:33;;;;;;;7.20;6.60;;;6.80;1.00;;;;;;5490103;25;20508;-42
2024/04/24 12:18:59;;;;;;;7.37;5.57;;;6.90;1.00;;;;;;5461242;26;20259;-42
2024/04/24 12:21:25;;;;;;;6.80;6.20;;;7.10;1.00;;;;;;5493120;26;20457;-40
2024/04/24 12:23:51;;;;;;;7.43;6.20;;;7.10;1.00;;;;;;5459671;26;20523;-41
2024/04/24 12:26:16;;;;;;;6.57;5.97;;;7.20;1.00;;;;;;5456364;26;20221;-41
2024/04/24 12:28:42;;;;;;;7.23;6.57;;;7.10;99.90;;;;;;5491219;26;20301;-41
2024/04/24 12:31:08;;;;;;;6.70;6.07;;;6.90;99.90;;;;;;5456561;26;20310;-42
2024/04/24 12:33:35;;;;;;;7.30;6.70;;;7.00;1.00;;;;;;5458418;26;20271;-41
2024/04/24 12:36:01;;;;;;;6.63;6.00;;;7.00;1.00;;;;;;5489501;26;20240;-42
2024/04/24 12:38:26;;;;;;;7.30;6.70;;;7.10;1.00;;;;;;5488960;26;20446;-42
2024/04/24 12:40:52;;;;;;;7.00;6.40;;;7.40;1.00;;;;;;5456163;26;20465;-42
2024/04/24 12:43:18;;;;;;;5.60;5.10;;;8.80;99.90;;;;;;5490197;26;20257;-45
2024/04/24 12:45:43;;;;;;;5.70;5.20;;;10.20;99.90;;;;;;5492196;26;20244;-42
2024/04/24 12:48:09;;;;;;;8.77;6.00;;;11.10;13.80;;;;;;5488500;26;20477;-42
2024/04/24 12:50:35;;;;;;;5.80;5.30;;;11.00;61.10;;;;;;5487865;26;20228;-45
2024/04/24 12:53:02;;;;;;;6.90;6.30;;;10.90;1.00;;;;;;5491122;26;20233;-43
2024/04/24 12:55:28;;;;;;;6.20;5.60;;;10.80;1.00;;;;;;5491595;26;20922;-41
2024/04/24 12:57:53;;;;;;;6.90;6.40;;;10.40;1.00;;;;;;5430072;26;20498;-41
2024/04/24 13:00:19;;;;;;;5.70;5.20;;;9.80;1.00;;;;;;5491504;26;20276;-41
2024/04/24 13:02:45;;;;;;;8.63;6.33;;;9.40;1.00;;;;;;5490944;26;20209;-43